createdAt,value
2018-12-02T00:00:10.866Z,0.00
2018-12-02T00:01:10.735Z,0.00
2018-12-02T00:02:10.602Z,0.00
2018-12-02T00:03:10.468Z,0.00
2018-12-02T00:04:10.335Z,0.00
2018-12-02T00:05:10.212Z,0.00
2018-12-02T00:06:10.069Z,0.00
2018-12-02T00:07:09.937Z,0.00
2018-12-02T00:08:09.812Z,0.00
2018-12-02T00:09:09.670Z,0.00
2018-12-02T00:10:09.535Z,0.00
2018-12-02T00:11:09.403Z,0.00
2018-12-02T00:12:09.272Z,0.00
2018-12-02T00:13:09.135Z,0.00
2018-12-02T00:14:09.006Z,0.00
2018-12-02T00:15:08.872Z,0.00
2018-12-02T00:16:08.736Z,0.00
2018-12-02T00:17:08.606Z,0.00
2018-12-02T00:18:08.519Z,0.00
2018-12-02T00:19:08.357Z,0.00
2018-12-02T00:20:08.204Z,0.00
2018-12-02T00:21:08.071Z,0.00
2018-12-02T00:22:07.939Z,0.00
2018-12-02T00:23:07.807Z,0.00
2018-12-02T00:24:07.671Z,0.00
2018-12-02T00:25:07.545Z,0.00
2018-12-02T00:26:07.411Z,0.00
2018-12-02T00:27:07.276Z,0.00
2018-12-02T00:28:07.138Z,0.00
2018-12-02T00:29:07.006Z,0.00
2018-12-02T00:30:06.875Z,0.00
2018-12-02T00:31:06.740Z,0.00
2018-12-02T00:32:06.651Z,0.00
2018-12-02T00:33:06.474Z,0.00
2018-12-02T00:34:06.340Z,0.00
2018-12-02T00:35:06.207Z,0.00
2018-12-02T00:36:06.074Z,0.00
2018-12-02T00:37:05.941Z,0.00
2018-12-02T00:38:05.812Z,0.00
2018-12-02T00:39:05.677Z,0.00
2018-12-02T00:40:05.550Z,0.00
2018-12-02T00:41:05.415Z,0.00
2018-12-02T00:42:05.282Z,0.00
2018-12-02T00:43:05.145Z,0.00
2018-12-02T00:44:05.009Z,0.00
2018-12-02T00:45:04.879Z,0.00
2018-12-02T00:46:04.744Z,0.00
2018-12-02T00:47:04.612Z,0.00
2018-12-02T00:48:04.485Z,0.00
2018-12-02T00:49:04.343Z,0.00
2018-12-02T00:50:04.211Z,0.00
2018-12-02T00:51:04.079Z,0.00
2018-12-02T00:52:03.948Z,0.00
2018-12-02T00:53:03.813Z,0.00
2018-12-02T00:54:03.680Z,0.00
2018-12-02T00:55:03.546Z,0.00
2018-12-02T00:56:03.412Z,0.00
2018-12-02T00:57:03.279Z,0.00
2018-12-02T00:58:03.149Z,0.00
2018-12-02T00:59:03.017Z,0.00
2018-12-02T01:00:02.881Z,0.00
2018-12-02T01:01:02.750Z,0.00
2018-12-02T01:02:02.616Z,0.00
2018-12-02T01:03:02.482Z,0.00
2018-12-02T01:04:02.349Z,0.00
2018-12-02T01:05:02.216Z,0.00
2018-12-02T01:06:02.081Z,0.00
2018-12-02T01:07:01.957Z,0.00
2018-12-02T01:08:01.817Z,0.00
2018-12-02T01:09:01.681Z,0.00
2018-12-02T01:10:01.563Z,0.00
2018-12-02T01:11:01.418Z,0.00
2018-12-02T01:12:01.284Z,0.00
2018-12-02T01:13:01.151Z,0.00
2018-12-02T01:14:01.021Z,0.00
2018-12-02T01:15:00.885Z,0.00
2018-12-02T01:16:00.752Z,0.00
2018-12-02T01:17:00.621Z,0.00
2018-12-02T01:18:00.485Z,0.00
2018-12-02T01:19:00.353Z,0.00
2018-12-02T01:20:00.220Z,0.00
2018-12-02T01:21:00.084Z,0.00
2018-12-02T01:21:59.950Z,0.00
2018-12-02T01:22:59.817Z,0.00
2018-12-02T01:23:59.685Z,0.00
2018-12-02T01:24:59.552Z,0.00
2018-12-02T01:25:59.419Z,0.00
2018-12-02T01:26:59.289Z,0.00
2018-12-02T01:27:59.153Z,0.00
2018-12-02T01:28:59.017Z,0.00
2018-12-02T01:29:58.887Z,0.00
2018-12-02T01:30:58.751Z,0.00
2018-12-02T01:31:58.619Z,0.00
2018-12-02T01:32:58.485Z,0.00
2018-12-02T01:33:58.355Z,0.00
2018-12-02T01:34:58.222Z,0.00
2018-12-02T01:35:58.086Z,0.00
2018-12-02T01:36:57.953Z,0.00
2018-12-02T01:37:57.820Z,0.00
2018-12-02T01:38:57.687Z,0.00
2018-12-02T01:39:57.555Z,0.00
2018-12-02T01:40:57.422Z,0.00
2018-12-02T01:41:57.289Z,0.00
2018-12-02T01:42:57.153Z,0.00
2018-12-02T01:43:57.020Z,0.00
2018-12-02T01:44:56.888Z,0.00
2018-12-02T01:45:56.754Z,0.00
2018-12-02T01:46:56.621Z,0.00
2018-12-02T01:47:56.489Z,0.00
2018-12-02T01:48:56.358Z,0.00
2018-12-02T01:49:56.225Z,0.00
2018-12-02T01:50:56.091Z,0.00
2018-12-02T01:51:55.955Z,0.00
2018-12-02T01:52:55.825Z,0.00
2018-12-02T01:53:55.691Z,0.00
2018-12-02T01:54:55.558Z,0.00
2018-12-02T01:55:55.426Z,0.00
2018-12-02T01:56:55.293Z,0.00
2018-12-02T01:57:55.159Z,0.00
2018-12-02T01:58:55.027Z,0.00
2018-12-02T01:59:54.892Z,0.00
2018-12-02T02:00:54.760Z,0.00
2018-12-02T02:01:54.627Z,0.00
2018-12-02T02:02:54.498Z,0.00
2018-12-02T02:03:54.361Z,0.00
2018-12-02T02:04:54.231Z,0.00
2018-12-02T02:05:54.099Z,0.00
2018-12-02T02:06:53.968Z,0.00
2018-12-02T02:07:53.831Z,0.00
2018-12-02T02:08:53.699Z,0.00
2018-12-02T02:09:53.568Z,0.00
2018-12-02T02:10:53.433Z,0.00
2018-12-02T02:11:53.301Z,0.00
2018-12-02T02:12:53.169Z,0.00
2018-12-02T02:13:53.037Z,0.00
2018-12-02T02:14:52.907Z,0.00
2018-12-02T02:15:52.770Z,0.00
2018-12-02T02:16:52.637Z,0.00
2018-12-02T02:17:52.506Z,0.00
2018-12-02T02:18:52.372Z,0.00
2018-12-02T02:19:52.242Z,0.00
2018-12-02T02:20:52.107Z,0.00
2018-12-02T02:21:51.972Z,0.00
2018-12-02T02:22:51.844Z,0.00
2018-12-02T02:23:51.708Z,0.00
2018-12-02T02:24:51.582Z,0.00
2018-12-02T02:25:51.448Z,0.00
2018-12-02T02:26:51.311Z,0.00
2018-12-02T02:27:51.178Z,0.00
2018-12-02T02:28:51.047Z,0.00
2018-12-02T02:29:50.911Z,0.00
2018-12-02T02:30:50.786Z,0.00
2018-12-02T02:31:50.647Z,0.00
2018-12-02T02:32:50.514Z,0.00
2018-12-02T02:33:50.384Z,0.00
2018-12-02T02:34:50.253Z,0.00
2018-12-02T02:35:50.116Z,0.00
2018-12-02T02:36:49.984Z,0.00
2018-12-02T02:37:49.850Z,0.00
2018-12-02T02:38:49.718Z,0.00
2018-12-02T02:39:49.590Z,0.00
2018-12-02T02:40:49.455Z,0.00
2018-12-02T02:41:49.322Z,0.00
2018-12-02T02:42:49.189Z,0.00
2018-12-02T02:43:49.053Z,0.00
2018-12-02T02:44:48.925Z,0.00
2018-12-02T02:45:48.789Z,0.00
2018-12-02T02:46:48.658Z,0.00
2018-12-02T02:47:48.524Z,0.00
2018-12-02T02:48:48.392Z,0.00
2018-12-02T02:49:48.259Z,0.00
2018-12-02T02:50:48.130Z,0.00
2018-12-02T02:51:47.993Z,0.00
2018-12-02T02:52:47.863Z,0.00
2018-12-02T02:53:47.729Z,0.00
2018-12-02T02:54:47.596Z,0.00
2018-12-02T02:55:47.462Z,0.00
2018-12-02T02:56:47.328Z,0.00
2018-12-02T02:57:47.221Z,0.00
2018-12-02T02:58:47.064Z,0.00
2018-12-02T02:59:46.931Z,0.00
2018-12-02T03:00:46.799Z,0.00
2018-12-02T03:01:46.676Z,0.00
2018-12-02T03:02:46.534Z,0.00
2018-12-02T03:03:46.400Z,0.00
2018-12-02T03:04:46.268Z,0.00
2018-12-02T03:05:46.137Z,0.00
2018-12-02T03:06:46.002Z,0.00
2018-12-02T03:07:45.869Z,0.00
2018-12-02T03:08:45.742Z,0.00
2018-12-02T03:09:45.604Z,0.00
2018-12-02T03:10:45.474Z,0.00
2018-12-02T03:11:45.341Z,0.00
2018-12-02T03:12:45.206Z,0.00
2018-12-02T03:13:46.049Z,0.00
2018-12-02T03:14:44.941Z,0.00
2018-12-02T03:15:44.808Z,0.00
2018-12-02T03:16:44.679Z,0.00
2018-12-02T03:17:44.542Z,0.00
2018-12-02T03:18:44.409Z,0.00
2018-12-02T03:19:44.279Z,0.00
2018-12-02T03:20:44.146Z,0.00
2018-12-02T03:21:44.011Z,0.00
2018-12-02T03:22:43.881Z,0.00
2018-12-02T03:23:43.747Z,0.00
2018-12-02T03:24:43.615Z,0.00
2018-12-02T03:25:43.483Z,0.00
2018-12-02T03:26:43.352Z,0.00
2018-12-02T03:27:43.216Z,0.00
2018-12-02T03:28:43.087Z,0.00
2018-12-02T03:29:42.956Z,0.00
2018-12-02T03:30:42.823Z,0.00
2018-12-02T03:31:42.696Z,0.00
2018-12-02T03:32:42.568Z,0.00
2018-12-02T03:33:42.425Z,0.00
2018-12-02T03:34:42.295Z,0.00
2018-12-02T03:35:42.162Z,0.00
2018-12-02T03:36:42.029Z,0.00
2018-12-02T03:37:41.901Z,0.00
2018-12-02T03:38:41.765Z,0.00
2018-12-02T03:39:41.630Z,0.00
2018-12-02T03:40:41.502Z,0.00
2018-12-02T03:41:41.367Z,0.00
2018-12-02T03:42:41.236Z,0.00
2018-12-02T03:43:41.101Z,0.00
2018-12-02T03:44:40.975Z,0.00
2018-12-02T03:45:40.837Z,0.00
2018-12-02T03:46:40.707Z,0.00
2018-12-02T03:47:40.576Z,0.00
2018-12-02T03:48:40.443Z,0.00
2018-12-02T03:49:40.310Z,0.00
2018-12-02T03:50:40.179Z,0.00
2018-12-02T03:51:40.044Z,0.00
2018-12-02T03:52:39.913Z,0.00
2018-12-02T03:53:39.783Z,0.00
2018-12-02T03:54:39.649Z,0.00
2018-12-02T03:55:39.515Z,0.00
2018-12-02T03:56:39.384Z,0.00
2018-12-02T03:57:39.252Z,0.00
2018-12-02T03:58:39.120Z,0.00
2018-12-02T03:59:38.990Z,0.00
2018-12-02T04:00:38.855Z,0.00
2018-12-02T04:01:38.725Z,0.00
2018-12-02T04:02:38.593Z,0.00
2018-12-02T04:03:38.460Z,0.00
2018-12-02T04:04:38.326Z,0.00
2018-12-02T04:05:38.195Z,0.00
2018-12-02T04:06:38.064Z,0.00
2018-12-02T04:07:37.932Z,0.00
2018-12-02T04:08:37.801Z,0.00
2018-12-02T04:09:37.667Z,0.00
2018-12-02T04:10:37.535Z,0.00
2018-12-02T04:11:37.405Z,0.00
2018-12-02T04:12:37.275Z,0.00
2018-12-02T04:13:37.144Z,0.00
2018-12-02T04:14:37.012Z,0.00
2018-12-02T04:15:36.877Z,0.00
2018-12-02T04:16:36.748Z,0.00
2018-12-02T04:17:36.616Z,0.00
2018-12-02T04:18:36.484Z,0.00
2018-12-02T04:19:36.351Z,0.00
2018-12-02T04:20:36.223Z,0.00
2018-12-02T04:21:36.089Z,0.00
2018-12-02T04:22:35.956Z,0.00
2018-12-02T04:23:35.823Z,0.00
2018-12-02T04:24:35.692Z,0.00
2018-12-02T04:25:35.561Z,0.00
2018-12-02T04:26:35.429Z,0.00
2018-12-02T04:27:35.298Z,0.00
2018-12-02T04:28:35.167Z,0.00
2018-12-02T04:29:35.033Z,0.00
2018-12-02T04:30:34.903Z,0.00
2018-12-02T04:31:34.769Z,0.00
2018-12-02T04:32:34.636Z,0.00
2018-12-02T04:33:34.533Z,0.00
2018-12-02T04:34:34.376Z,0.00
2018-12-02T04:35:34.244Z,0.00
2018-12-02T04:36:34.109Z,0.00
2018-12-02T04:37:33.978Z,0.00
2018-12-02T04:38:33.847Z,0.00
2018-12-02T04:39:33.715Z,0.00
2018-12-02T04:40:33.583Z,0.00
2018-12-02T04:41:33.450Z,0.00
2018-12-02T04:42:33.319Z,0.00
2018-12-02T04:43:33.186Z,0.00
2018-12-02T04:44:33.055Z,0.00
2018-12-02T04:45:32.926Z,0.00
2018-12-02T04:46:32.799Z,0.00
2018-12-02T04:47:32.658Z,0.00
2018-12-02T04:48:32.527Z,0.00
2018-12-02T04:49:32.395Z,0.00
2018-12-02T04:50:32.266Z,0.00
2018-12-02T04:51:32.131Z,0.00
2018-12-02T04:52:32.001Z,0.00
2018-12-02T04:53:31.868Z,0.00
2018-12-02T04:54:31.737Z,0.00
2018-12-02T04:55:31.603Z,0.00
2018-12-02T04:56:31.474Z,0.00
2018-12-02T04:57:31.343Z,0.00
2018-12-02T04:58:31.210Z,0.00
2018-12-02T04:59:31.080Z,0.00
2018-12-02T05:00:30.947Z,0.00
2018-12-02T05:01:30.814Z,0.00
2018-12-02T05:02:30.683Z,0.00
2018-12-02T05:03:30.553Z,0.00
2018-12-02T05:04:30.418Z,0.00
2018-12-02T05:05:30.287Z,0.00
2018-12-02T05:06:30.156Z,0.00
2018-12-02T05:07:30.023Z,0.00
2018-12-02T05:08:29.891Z,0.00
2018-12-02T05:09:29.759Z,0.00
2018-12-02T05:10:29.630Z,0.00
2018-12-02T05:11:29.498Z,0.00
2018-12-02T05:12:29.365Z,0.00
2018-12-02T05:13:29.233Z,0.00
2018-12-02T05:14:29.101Z,0.00
2018-12-02T05:15:28.970Z,0.00
2018-12-02T05:16:28.838Z,0.00
2018-12-02T05:17:28.706Z,0.00
2018-12-02T05:18:28.589Z,0.00
2018-12-02T05:19:28.441Z,0.00
2018-12-02T05:20:28.310Z,0.00
2018-12-02T05:21:28.177Z,0.00
2018-12-02T05:22:28.045Z,0.00
2018-12-02T05:23:27.914Z,0.00
2018-12-02T05:24:27.778Z,0.00
2018-12-02T05:25:27.651Z,0.00
2018-12-02T05:26:27.516Z,0.00
2018-12-02T05:27:27.382Z,0.00
2018-12-02T05:28:27.254Z,0.00
2018-12-02T05:29:27.120Z,0.00
2018-12-02T05:30:26.992Z,0.00
2018-12-02T05:31:26.858Z,0.00
2018-12-02T05:32:26.724Z,0.00
2018-12-02T05:33:26.592Z,0.00
2018-12-02T05:34:26.459Z,0.00
2018-12-02T05:35:26.327Z,0.00
2018-12-02T05:36:26.194Z,0.00
2018-12-02T05:37:26.062Z,0.00
2018-12-02T05:38:25.932Z,0.00
2018-12-02T05:39:25.798Z,0.00
2018-12-02T05:40:25.667Z,0.00
2018-12-02T05:41:25.534Z,0.00
2018-12-02T05:42:25.403Z,0.00
2018-12-02T05:43:25.269Z,0.00
2018-12-02T05:44:25.138Z,0.00
2018-12-02T05:45:25.006Z,0.00
2018-12-02T05:46:24.878Z,0.00
2018-12-02T05:47:24.741Z,0.00
2018-12-02T05:48:24.607Z,0.00
2018-12-02T05:49:24.481Z,0.00
2018-12-02T05:50:24.346Z,0.00
2018-12-02T05:51:24.215Z,0.00
2018-12-02T05:52:24.081Z,0.00
2018-12-02T05:53:23.953Z,0.00
2018-12-02T05:54:23.817Z,0.00
2018-12-02T05:55:23.685Z,0.00
2018-12-02T05:56:23.553Z,0.00
2018-12-02T05:57:23.423Z,0.00
2018-12-02T05:58:23.293Z,0.00
2018-12-02T05:59:23.157Z,0.00
2018-12-02T06:00:23.027Z,0.00
2018-12-02T06:01:22.893Z,0.00
2018-12-02T06:02:22.765Z,0.00
2018-12-02T06:03:22.632Z,0.00
2018-12-02T06:04:22.498Z,0.00
2018-12-02T06:05:22.398Z,0.00
2018-12-02T06:06:22.239Z,0.00
2018-12-02T06:07:22.103Z,0.00
2018-12-02T06:08:21.972Z,0.00
2018-12-02T06:09:21.838Z,0.00
2018-12-02T06:10:21.708Z,0.00
2018-12-02T06:11:21.576Z,0.00
2018-12-02T06:12:21.443Z,0.00
2018-12-02T06:13:21.315Z,0.00
2018-12-02T06:14:21.181Z,0.00
2018-12-02T06:15:21.047Z,0.00
2018-12-02T06:16:20.917Z,0.00
2018-12-02T06:17:20.786Z,0.00
2018-12-02T06:18:20.653Z,0.00
2018-12-02T06:19:20.521Z,0.00
2018-12-02T06:20:20.390Z,0.00
2018-12-02T06:21:20.258Z,0.00
2018-12-02T06:22:20.125Z,0.00
2018-12-02T06:23:19.998Z,0.00
2018-12-02T06:24:19.863Z,0.00
2018-12-02T06:25:19.731Z,0.00
2018-12-02T06:26:19.598Z,0.00
2018-12-02T06:27:19.467Z,4.00
2018-12-02T06:28:19.336Z,4.00
2018-12-02T06:29:19.204Z,4.00
2018-12-02T06:30:19.072Z,4.00
2018-12-02T06:31:18.940Z,0.00
2018-12-02T06:32:18.806Z,4.00
2018-12-02T06:33:18.675Z,4.00
2018-12-02T06:34:18.544Z,8.00
2018-12-02T06:35:18.413Z,8.00
2018-12-02T06:36:18.281Z,8.00
2018-12-02T06:37:18.147Z,8.00
2018-12-02T06:38:18.017Z,12.00
2018-12-02T06:39:17.886Z,12.00
2018-12-02T06:40:17.753Z,12.00
2018-12-02T06:41:17.622Z,12.00
2018-12-02T06:42:17.491Z,12.00
2018-12-02T06:43:17.356Z,12.00
2018-12-02T06:44:17.228Z,12.00
2018-12-02T06:45:17.096Z,12.00
2018-12-02T06:46:16.967Z,12.00
2018-12-02T06:47:16.830Z,16.00
2018-12-02T06:48:16.698Z,16.00
2018-12-02T06:49:16.568Z,16.00
2018-12-02T06:50:16.445Z,20.00
2018-12-02T06:51:16.306Z,20.00
2018-12-02T06:52:16.174Z,20.00
2018-12-02T06:53:16.042Z,20.00
2018-12-02T06:54:16.067Z,20.00
2018-12-02T06:55:15.840Z,20.00
2018-12-02T06:56:15.648Z,20.00
2018-12-02T06:57:15.519Z,24.00
2018-12-02T06:58:15.389Z,24.00
2018-12-02T06:59:15.255Z,28.00
2018-12-02T07:00:15.125Z,28.00
2018-12-02T07:01:14.992Z,32.00
2018-12-02T07:02:14.866Z,40.00
2018-12-02T07:03:14.727Z,44.00
2018-12-02T07:04:14.600Z,48.00
2018-12-02T07:05:14.468Z,56.00
2018-12-02T07:06:14.338Z,60.00
2018-12-02T07:07:14.213Z,64.00
2018-12-02T07:08:14.072Z,68.00
2018-12-02T07:09:13.943Z,72.00
2018-12-02T07:10:13.810Z,76.00
2018-12-02T07:11:13.678Z,84.00
2018-12-02T07:12:13.552Z,92.00
2018-12-02T07:13:13.415Z,100.00
2018-12-02T07:14:13.286Z,108.00
2018-12-02T07:15:13.161Z,124.00
2018-12-02T07:16:13.022Z,136.00
2018-12-02T07:17:12.891Z,156.00
2018-12-02T07:18:12.763Z,168.00
2018-12-02T07:19:12.627Z,184.00
2018-12-02T07:20:12.496Z,204.00
2018-12-02T07:21:12.365Z,212.00
2018-12-02T07:22:12.236Z,228.00
2018-12-02T07:23:12.101Z,240.00
2018-12-02T07:24:11.971Z,248.00
2018-12-02T07:25:11.839Z,260.00
2018-12-02T07:26:11.707Z,264.00
2018-12-02T07:27:11.575Z,276.00
2018-12-02T07:28:11.445Z,284.00
2018-12-02T07:29:11.317Z,300.00
2018-12-02T07:30:11.198Z,324.00
2018-12-02T07:31:11.050Z,344.00
2018-12-02T07:32:10.919Z,360.00
2018-12-02T07:33:10.790Z,376.00
2018-12-02T07:34:10.661Z,388.00
2018-12-02T07:35:10.526Z,396.00
2018-12-02T07:36:10.396Z,408.00
2018-12-02T07:37:10.263Z,432.00
2018-12-02T07:38:10.132Z,444.00
2018-12-02T07:39:10.067Z,452.00
2018-12-02T07:40:09.891Z,464.00
2018-12-02T07:41:09.738Z,472.00
2018-12-02T07:42:09.608Z,500.00
2018-12-02T07:43:09.474Z,536.00
2018-12-02T07:44:09.345Z,568.00
2018-12-02T07:45:09.213Z,604.00
2018-12-02T07:46:09.083Z,640.00
2018-12-02T07:47:08.954Z,676.00
2018-12-02T07:48:08.821Z,708.00
2018-12-02T07:49:08.688Z,740.00
2018-12-02T07:50:08.557Z,768.00
2018-12-02T07:51:08.426Z,780.00
2018-12-02T07:52:08.295Z,776.00
2018-12-02T07:53:08.165Z,756.00
2018-12-02T07:54:08.033Z,732.00
2018-12-02T07:55:07.906Z,704.00
2018-12-02T07:56:07.784Z,688.00
2018-12-02T07:57:07.641Z,680.00
2018-12-02T07:58:07.512Z,672.00
2018-12-02T07:59:07.432Z,660.00
2018-12-02T08:00:07.254Z,672.00
2018-12-02T08:01:07.125Z,696.00
2018-12-02T08:02:06.991Z,724.00
2018-12-02T08:03:06.858Z,788.00
2018-12-02T08:04:06.738Z,876.00
2018-12-02T08:05:06.597Z,948.00
2018-12-02T08:06:06.468Z,1000.00
2018-12-02T08:07:06.337Z,1036.00
2018-12-02T08:08:06.205Z,1060.00
2018-12-02T08:09:06.078Z,1068.00
2018-12-02T08:10:05.947Z,1056.00
2018-12-02T08:11:05.814Z,1000.00
2018-12-02T08:12:05.683Z,916.00
2018-12-02T08:13:05.554Z,848.00
2018-12-02T08:14:05.424Z,732.00
2018-12-02T08:15:05.292Z,580.00
2018-12-02T08:16:05.162Z,492.00
2018-12-02T08:17:05.033Z,440.00
2018-12-02T08:18:04.902Z,416.00
2018-12-02T08:19:04.771Z,444.00
2018-12-02T08:20:04.643Z,492.00
2018-12-02T08:21:04.513Z,548.00
2018-12-02T08:22:04.382Z,608.00
2018-12-02T08:23:04.256Z,680.00
2018-12-02T08:24:04.121Z,748.00
2018-12-02T08:25:03.991Z,768.00
2018-12-02T08:26:03.861Z,736.00
2018-12-02T08:27:03.730Z,700.00
2018-12-02T08:28:03.601Z,692.00
2018-12-02T08:29:03.472Z,700.00
2018-12-02T08:30:03.340Z,736.00
2018-12-02T08:31:03.212Z,788.00
2018-12-02T08:32:03.083Z,864.00
2018-12-02T08:33:02.951Z,920.00
2018-12-02T08:34:02.818Z,928.00
2018-12-02T08:35:02.687Z,924.00
2018-12-02T08:36:02.561Z,876.00
2018-12-02T08:37:02.429Z,808.00
2018-12-02T08:38:02.297Z,740.00
2018-12-02T08:39:02.165Z,668.00
2018-12-02T08:40:02.083Z,644.00
2018-12-02T08:41:01.908Z,664.00
2018-12-02T08:42:01.776Z,712.00
2018-12-02T08:43:01.649Z,776.00
2018-12-02T08:44:01.519Z,840.00
2018-12-02T08:45:01.390Z,888.00
2018-12-02T08:46:01.258Z,936.00
2018-12-02T08:47:01.129Z,988.00
2018-12-02T08:48:00.996Z,1012.00
2018-12-02T08:49:00.868Z,1044.00
2018-12-02T08:50:00.740Z,1100.00
2018-12-02T08:51:00.606Z,1164.00
2018-12-02T08:52:00.476Z,1176.00
2018-12-02T08:53:00.346Z,1136.00
2018-12-02T08:54:00.219Z,1064.00
2018-12-02T08:55:00.085Z,972.00
2018-12-02T08:55:59.956Z,892.00
2018-12-02T08:56:59.827Z,860.00
2018-12-02T08:57:59.698Z,864.00
2018-12-02T08:58:59.566Z,884.00
2018-12-02T08:59:59.438Z,896.00
2018-12-02T09:00:59.309Z,876.00
2018-12-02T09:01:59.183Z,852.00
2018-12-02T09:02:59.048Z,808.00
2018-12-02T09:03:58.918Z,744.00
2018-12-02T09:04:58.788Z,684.00
2018-12-02T09:05:58.658Z,636.00
2018-12-02T09:06:58.530Z,604.00
2018-12-02T09:07:58.410Z,612.00
2018-12-02T09:08:58.268Z,620.00
2018-12-02T09:09:59.649Z,632.00
2018-12-02T09:10:58.007Z,628.00
2018-12-02T09:11:57.880Z,612.00
2018-12-02T09:12:57.749Z,612.00
2018-12-02T09:13:57.621Z,632.00
2018-12-02T09:14:57.795Z,688.00
2018-12-02T09:15:57.362Z,740.00
2018-12-02T09:16:57.373Z,808.00
2018-12-02T09:17:57.101Z,948.00
2018-12-02T09:18:56.991Z,1104.00
2018-12-02T09:19:56.840Z,1268.00
2018-12-02T09:20:56.712Z,1428.00
2018-12-02T09:21:56.581Z,1600.00
2018-12-02T09:22:56.452Z,1724.00
2018-12-02T09:23:56.324Z,1668.00
2018-12-02T09:24:56.194Z,1600.00
2018-12-02T09:25:56.063Z,1648.00
2018-12-02T09:26:55.934Z,1644.00
2018-12-02T09:27:55.804Z,1448.00
2018-12-02T09:28:55.675Z,1476.00
2018-12-02T09:29:55.547Z,1628.00
2018-12-02T09:30:55.417Z,1720.00
2018-12-02T09:31:55.320Z,1940.00
2018-12-02T09:32:55.164Z,1900.00
2018-12-02T09:33:55.031Z,1924.00
2018-12-02T09:34:54.899Z,2228.00
2018-12-02T09:35:54.770Z,2212.00
2018-12-02T09:36:58.011Z,2940.00
2018-12-02T09:37:54.512Z,3148.00
2018-12-02T09:38:54.383Z,2900.00
2018-12-02T09:39:54.253Z,2668.00
2018-12-02T09:40:54.126Z,2568.00
2018-12-02T09:41:54.045Z,2536.00
2018-12-02T09:42:53.866Z,2660.00
2018-12-02T09:43:53.736Z,2904.00
2018-12-02T09:44:53.608Z,2924.00
2018-12-02T09:45:53.479Z,2740.00
2018-12-02T09:46:53.352Z,3276.00
2018-12-02T09:47:53.272Z,3648.00
2018-12-02T09:48:53.097Z,3328.00
2018-12-02T09:49:52.981Z,3456.00
2018-12-02T09:50:52.841Z,3296.00
2018-12-02T09:51:52.710Z,3116.00
2018-12-02T09:52:52.583Z,3144.00
2018-12-02T09:53:52.456Z,3252.00
2018-12-02T09:54:52.462Z,2848.00
2018-12-02T09:55:52.199Z,3264.00
2018-12-02T09:56:52.068Z,3184.00
2018-12-02T09:57:51.941Z,2936.00
2018-12-02T09:58:51.812Z,3264.00
2018-12-02T09:59:51.703Z,3652.00
2018-12-02T10:00:51.603Z,3552.00
2018-12-02T10:01:51.435Z,3456.00
2018-12-02T10:02:51.304Z,3648.00
2018-12-02T10:03:51.320Z,3308.00
2018-12-02T10:04:51.045Z,3240.00
2018-12-02T10:05:50.921Z,3332.00
2018-12-02T10:06:50.790Z,3388.00
2018-12-02T10:07:50.662Z,3412.00
2018-12-02T10:08:50.719Z,3436.00
2018-12-02T10:09:50.408Z,3292.00
2018-12-02T10:10:50.275Z,3304.00
2018-12-02T10:11:50.149Z,3284.00
2018-12-02T10:12:50.021Z,3200.00
2018-12-02T10:13:49.893Z,3128.00
2018-12-02T10:14:49.764Z,3056.00
2018-12-02T10:15:49.636Z,3032.00
2018-12-02T10:16:49.507Z,3004.00
2018-12-02T10:17:49.385Z,2820.00
2018-12-02T10:18:49.253Z,2696.00
2018-12-02T10:19:49.125Z,2652.00
2018-12-02T10:20:48.998Z,2644.00
2018-12-02T10:21:48.872Z,2616.00
2018-12-02T10:22:48.743Z,2536.00
2018-12-02T10:23:48.648Z,2368.00
2018-12-02T10:24:48.486Z,2368.00
2018-12-02T10:25:48.359Z,2400.00
2018-12-02T10:26:48.230Z,2188.00
2018-12-02T10:27:48.102Z,1944.00
2018-12-02T10:28:47.974Z,1844.00
2018-12-02T10:29:47.847Z,1828.00
2018-12-02T10:30:47.717Z,1788.00
2018-12-02T10:31:47.591Z,1752.00
2018-12-02T10:32:47.469Z,1688.00
2018-12-02T10:33:47.338Z,1636.00
2018-12-02T10:34:47.207Z,1548.00
2018-12-02T10:35:47.084Z,1428.00
2018-12-02T10:36:46.954Z,1328.00
2018-12-02T10:37:46.823Z,1316.00
2018-12-02T10:38:46.695Z,1324.00
2018-12-02T10:39:46.565Z,1232.00
2018-12-02T10:40:46.442Z,1052.00
2018-12-02T10:41:46.311Z,928.00
2018-12-02T10:42:46.183Z,856.00
2018-12-02T10:43:46.059Z,768.00
2018-12-02T10:44:45.927Z,688.00
2018-12-02T10:45:46.067Z,636.00
2018-12-02T10:46:45.813Z,592.00
2018-12-02T10:47:45.546Z,556.00
2018-12-02T10:48:45.412Z,516.00
2018-12-02T10:49:45.285Z,480.00
2018-12-02T10:50:45.156Z,456.00
2018-12-02T10:51:45.033Z,436.00
2018-12-02T10:52:44.900Z,428.00
2018-12-02T10:53:44.773Z,432.00
2018-12-02T10:54:44.640Z,448.00
2018-12-02T10:55:44.513Z,468.00
2018-12-02T10:56:44.385Z,484.00
2018-12-02T10:57:44.256Z,500.00
2018-12-02T10:58:44.127Z,520.00
2018-12-02T10:59:43.997Z,548.00
2018-12-02T11:00:44.024Z,584.00
2018-12-02T11:01:43.740Z,632.00
2018-12-02T11:02:43.613Z,692.00
2018-12-02T11:03:43.484Z,756.00
2018-12-02T11:04:43.355Z,812.00
2018-12-02T11:05:43.227Z,832.00
2018-12-02T11:06:43.096Z,804.00
2018-12-02T11:07:42.965Z,764.00
2018-12-02T11:08:42.838Z,736.00
2018-12-02T11:09:42.709Z,744.00
2018-12-02T11:10:42.579Z,736.00
2018-12-02T11:11:42.511Z,704.00
2018-12-02T11:12:42.326Z,696.00
2018-12-02T11:13:42.244Z,704.00
2018-12-02T11:14:42.063Z,692.00
2018-12-02T11:15:41.938Z,664.00
2018-12-02T11:16:41.806Z,688.00
2018-12-02T11:17:41.677Z,724.00
2018-12-02T11:18:41.547Z,756.00
2018-12-02T11:19:41.417Z,812.00
2018-12-02T11:20:41.290Z,876.00
2018-12-02T11:21:41.160Z,988.00
2018-12-02T11:22:41.036Z,1108.00
2018-12-02T11:23:40.899Z,1208.00
2018-12-02T11:24:40.769Z,1240.00
2018-12-02T11:25:40.646Z,1260.00
2018-12-02T11:26:40.624Z,1284.00
2018-12-02T11:27:40.389Z,1268.00
2018-12-02T11:28:40.251Z,1216.00
2018-12-02T11:29:40.123Z,1172.00
2018-12-02T11:30:39.996Z,1180.00
2018-12-02T11:31:39.864Z,1220.00
2018-12-02T11:32:39.736Z,1236.00
2018-12-02T11:33:39.605Z,1256.00
2018-12-02T11:34:39.477Z,1308.00
2018-12-02T11:35:39.351Z,1400.00
2018-12-02T11:36:39.218Z,1488.00
2018-12-02T11:37:39.086Z,1548.00
2018-12-02T11:38:38.963Z,1600.00
2018-12-02T11:39:38.827Z,1712.00
2018-12-02T11:40:38.699Z,1864.00
2018-12-02T11:41:38.567Z,2012.00
2018-12-02T11:42:38.439Z,2092.00
2018-12-02T11:43:38.309Z,2152.00
2018-12-02T11:44:38.180Z,2180.00
2018-12-02T11:45:38.050Z,2208.00
2018-12-02T11:46:37.919Z,2220.00
2018-12-02T11:47:37.791Z,2224.00
2018-12-02T11:48:37.667Z,2308.00
2018-12-02T11:49:37.533Z,2460.00
2018-12-02T11:50:37.406Z,2576.00
2018-12-02T11:51:37.275Z,2736.00
2018-12-02T11:52:37.142Z,2760.00
2018-12-02T11:53:37.013Z,2736.00
2018-12-02T11:54:36.883Z,2676.00
2018-12-02T11:55:36.761Z,2636.00
2018-12-02T11:56:36.632Z,2588.00
2018-12-02T11:57:36.495Z,2492.00
2018-12-02T11:58:36.366Z,2432.00
2018-12-02T11:59:36.243Z,2512.00
2018-12-02T12:00:36.105Z,2600.00
2018-12-02T12:01:35.979Z,2580.00
2018-12-02T12:02:35.848Z,2440.00
2018-12-02T12:03:35.718Z,2300.00
2018-12-02T12:04:35.589Z,2096.00
2018-12-02T12:05:35.462Z,1960.00
2018-12-02T12:06:35.329Z,1928.00
2018-12-02T12:07:35.199Z,2036.00
2018-12-02T12:08:35.071Z,2184.00
2018-12-02T12:09:34.943Z,2188.00
2018-12-02T12:10:34.812Z,2044.00
2018-12-02T12:11:34.717Z,1820.00
2018-12-02T12:12:34.553Z,1684.00
2018-12-02T12:13:34.422Z,1816.00
2018-12-02T12:14:34.292Z,2084.00
2018-12-02T12:15:34.165Z,2372.00
2018-12-02T12:16:34.033Z,2596.00
2018-12-02T12:17:33.908Z,2688.00
2018-12-02T12:18:33.777Z,2688.00
2018-12-02T12:19:33.644Z,2700.00
2018-12-02T12:20:33.514Z,2808.00
2018-12-02T12:21:33.405Z,2800.00
2018-12-02T12:22:33.256Z,2704.00
2018-12-02T12:23:33.128Z,2580.00
2018-12-02T12:24:32.994Z,2504.00
2018-12-02T12:25:32.864Z,2320.00
2018-12-02T12:26:32.736Z,2216.00
2018-12-02T12:27:32.607Z,2072.00
2018-12-02T12:28:32.562Z,1988.00
2018-12-02T12:29:32.349Z,1912.00
2018-12-02T12:30:32.217Z,1796.00
2018-12-02T12:31:32.087Z,1720.00
2018-12-02T12:32:31.961Z,1828.00
2018-12-02T12:33:31.834Z,1692.00
2018-12-02T12:34:31.698Z,1400.00
2018-12-02T12:35:31.573Z,1288.00
2018-12-02T12:36:31.445Z,1308.00
2018-12-02T12:37:31.317Z,1392.00
2018-12-02T12:38:31.182Z,1392.00
2018-12-02T12:39:31.051Z,1304.00
2018-12-02T12:40:30.925Z,1224.00
2018-12-02T12:41:30.792Z,1132.00
2018-12-02T12:42:30.662Z,1032.00
2018-12-02T12:43:30.559Z,1020.00
2018-12-02T12:44:30.525Z,1032.00
2018-12-02T12:45:30.278Z,1064.00
2018-12-02T12:46:30.148Z,1124.00